sensor_id;sensor_type;location;lat;lon;timestamp;pressure;altitude;pressure_sealevel;temperature;humidity
7940;BME280;4015;48.888;9.226;2022-09-09T00:04:27;159217.84;;;15.82;82.22
7940;BME280;4015;48.888;9.226;2022-09-09T00:07:18;159193.53;;;15.72;84.09
7940;BME280;4015;48.888;9.226;2022-09-09T00:10:04;159185.81;;;15.69;84.26
7940;BME280;4015;48.888;9.226;2022-09-09T00:12:47;159178.16;;;15.66;84.15
7940;BME280;4015;48.888;9.226;2022-09-09T00:15:22;159170.44;;;15.63;83.63
7940;BME280;4015;48.888;9.226;2022-09-09T00:18:03;159166.56;;;15.61;83.57
7940;BME280;4015;48.888;9.226;2022-09-09T00:20:51;159188.38;;;15.70;83.08
7940;BME280;4015;48.888;9.226;2022-09-09T00:23:26;159211.47;;;15.79;83.10
7940;BME280;4015;48.888;9.226;2022-09-09T00:28:47;159182.00;;;15.68;83.90
7940;BME280;4015;48.888;9.226;2022-09-09T00:31:20;159208.91;;;15.78;83.89
7940;BME280;4015;48.888;9.226;2022-09-09T00:33:49;159220.41;;;15.83;83.42
7940;BME280;4015;48.888;9.226;2022-09-09T00:36:18;159238.34;;;15.90;82.98
7940;BME280;4015;48.888;9.226;2022-09-09T00:38:49;159256.31;;;15.97;82.89
7940;BME280;4015;48.888;9.226;2022-09-09T00:41:42;159267.84;;;16.02;82.81
7940;BME280;4015;48.888;9.226;2022-09-09T00:58:15;159313.97;;;16.20;81.41
7940;BME280;4015;48.888;9.226;2022-09-09T01:00:46;159330.63;;;16.27;81.31
7940;BME280;4015;48.888;9.226;2022-09-09T01:03:29;159357.56;;;16.37;80.21
7940;BME280;4015;48.888;9.226;2022-09-09T01:11:25;159351.19;;;16.35;81.32
7940;BME280;4015;48.888;9.226;2022-09-09T01:14:19;159372.94;;;16.43;81.40
7940;BME280;4015;48.888;9.226;2022-09-09T01:16:45;159347.28;;;16.33;81.87
7940;BME280;4015;48.888;9.226;2022-09-09T01:19:33;159353.72;;;16.36;81.28
7940;BME280;4015;48.888;9.226;2022-09-09T01:22:10;159363.97;;;16.40;80.84
7940;BME280;4015;48.888;9.226;2022-09-09T01:24:53;159329.34;;;16.26;81.23
7940;BME280;4015;48.888;9.226;2022-09-09T01:27:20;159312.69;;;16.19;81.73
7940;BME280;4015;48.888;9.226;2022-09-09T01:29:47;159315.25;;;16.21;81.77
7940;BME280;4015;48.888;9.226;2022-09-09T01:32:37;159310.16;;;16.18;81.84
7940;BME280;4015;48.888;9.226;2022-09-09T01:35:04;159306.31;;;16.17;82.08
7940;BME280;4015;48.888;9.226;2022-09-09T01:37:29;159307.59;;;16.17;81.97
7940;BME280;4015;48.888;9.226;2022-09-09T01:39:55;159310.16;;;16.18;82.46
7940;BME280;4015;48.888;9.226;2022-09-09T01:42:20;159288.38;;;16.10;82.78
7940;BME280;4015;48.888;9.226;2022-09-09T01:44:45;159305.03;;;16.16;82.13
7940;BME280;4015;48.888;9.226;2022-09-09T01:47:11;159321.69;;;16.23;81.83
7940;BME280;4015;48.888;9.226;2022-09-09T01:49:36;159312.69;;;16.19;81.96
7940;BME280;4015;48.888;9.226;2022-09-09T01:52:02;159293.47;;;16.12;81.64
7940;BME280;4015;48.888;9.226;2022-09-09T01:54:30;159289.66;;;16.10;82.28
7940;BME280;4015;48.888;9.226;2022-09-09T01:57:19;159302.47;;;16.15;82.29
7940;BME280;4015;48.888;9.226;2022-09-09T02:00:08;159301.16;;;16.15;82.23
7940;BME280;4015;48.888;9.226;2022-09-09T02:03:05;159301.16;;;16.15;81.82
7940;BME280;4015;48.888;9.226;2022-09-09T02:05:38;159305.03;;;16.16;82.22
7940;BME280;4015;48.888;9.226;2022-09-09T02:08:08;159301.16;;;16.15;82.22
7940;BME280;4015;48.888;9.226;2022-09-09T02:13:17;159255.06;;;15.97;82.30
7940;BME280;4015;48.888;9.226;2022-09-09T02:15:59;159229.41;;;15.86;82.63
7940;BME280;4015;48.888;9.226;2022-09-09T02:19:15;159212.75;;;15.80;82.51
7940;BME280;4015;48.888;9.226;2022-09-09T02:21:53;159193.53;;;15.72;82.70
7940;BME280;4015;48.888;9.226;2022-09-09T02:24:21;159202.47;;;15.76;82.13
7940;BME280;4015;48.888;9.226;2022-09-09T02:26:49;159169.16;;;15.62;83.25
7940;BME280;4015;48.888;9.226;2022-09-09T02:29:30;159137.09;;;15.50;83.94
7940;BME280;4015;48.888;9.226;2022-09-09T02:32:00;159114.03;;;15.41;84.39
7940;BME280;4015;48.888;9.226;2022-09-09T02:34:30;159089.69;;;15.31;84.13
7940;BME280;4015;48.888;9.226;2022-09-09T02:36:57;159114.03;;;15.41;83.19
7940;BME280;4015;48.888;9.226;2022-09-09T02:39:25;159101.22;;;15.35;83.52
7940;BME280;4015;48.888;9.226;2022-09-09T02:41:50;159074.31;;;15.25;84.44
7940;BME280;4015;48.888;9.226;2022-09-09T02:44:17;159069.19;;;15.23;83.97
7940;BME280;4015;48.888;9.226;2022-09-09T02:52:04;159073.03;;;15.24;83.74
7940;BME280;4015;48.888;9.226;2022-09-09T02:54:33;159078.13;;;15.26;83.47
7940;BME280;4015;48.888;9.226;2022-09-09T02:57:04;159060.22;;;15.19;83.79
7940;BME280;4015;48.888;9.226;2022-09-09T02:59:32;159056.38;;;15.18;83.98
7940;BME280;4015;48.888;9.226;2022-09-09T03:01:58;159030.75;;;15.07;84.62
7940;BME280;4015;48.888;9.226;2022-09-09T03:04:23;159034.63;;;15.09;83.65
7940;BME280;4015;48.888;9.226;2022-09-09T03:06:50;159050.00;;;15.15;84.14
7940;BME280;4015;48.888;9.226;2022-09-09T03:09:16;159067.91;;;15.22;84.49
7940;BME280;4015;48.888;9.226;2022-09-09T03:11:41;159053.81;;;15.17;84.29
7940;BME280;4015;48.888;9.226;2022-09-09T03:14:06;159041.00;;;15.11;84.37
7940;BME280;4015;48.888;9.226;2022-09-09T03:16:33;159017.97;;;15.02;84.96
7940;BME280;4015;48.888;9.226;2022-09-09T03:19:00;158971.84;;;14.84;85.25
7940;BME280;4015;48.888;9.226;2022-09-09T03:21:25;158957.75;;;14.78;85.48
7940;BME280;4015;48.888;9.226;2022-09-09T03:23:51;158994.88;;;14.93;85.06
7940;BME280;4015;48.888;9.226;2022-09-09T03:26:16;158966.69;;;14.82;85.53
7940;BME280;4015;48.888;9.226;2022-09-09T03:28:42;158944.94;;;14.73;85.78
7940;BME280;4015;48.888;9.226;2022-09-09T03:31:08;158933.41;;;14.69;86.28
7940;BME280;4015;48.888;9.226;2022-09-09T03:33:36;158937.25;;;14.70;86.14
7940;BME280;4015;48.888;9.226;2022-09-09T03:36:02;158957.75;;;14.78;85.76
7940;BME280;4015;48.888;9.226;2022-09-09T03:38:28;158934.69;;;14.69;85.52
7940;BME280;4015;48.888;9.226;2022-09-09T03:40:54;158914.22;;;14.61;85.79
7940;BME280;4015;48.888;9.226;2022-09-09T03:43:24;158935.97;;;14.70;85.06
7940;BME280;4015;48.888;9.226;2022-09-09T03:45:50;158903.94;;;14.57;86.25
7940;BME280;4015;48.888;9.226;2022-09-09T03:48:16;158901.41;;;14.56;85.96
7940;BME280;4015;48.888;9.226;2022-09-09T03:50:46;158886.03;;;14.50;86.77
7940;BME280;4015;48.888;9.226;2022-09-09T03:53:13;158879.66;;;14.47;86.83
7940;BME280;4015;48.888;9.226;2022-09-09T03:55:43;158882.19;;;14.48;86.36
7940;BME280;4015;48.888;9.226;2022-09-09T03:58:09;158896.28;;;14.54;86.80
7940;BME280;4015;48.888;9.226;2022-09-09T04:00:35;158964.16;;;14.81;85.41
7940;BME280;4015;48.888;9.226;2022-09-09T04:03:01;158997.44;;;14.94;84.56
7940;BME280;4015;48.888;9.226;2022-09-09T04:05:26;159043.56;;;15.13;83.57
7940;BME280;4015;48.888;9.226;2022-09-09T04:07:52;159042.28;;;15.12;83.68
7940;BME280;4015;48.888;9.226;2022-09-09T04:10:17;159026.91;;;15.06;84.61
7940;BME280;4015;48.888;9.226;2022-09-09T04:12:42;159025.63;;;15.05;84.62
7940;BME280;4015;48.888;9.226;2022-09-09T04:15:09;159074.31;;;15.25;84.32
7940;BME280;4015;48.888;9.226;2022-09-09T04:17:35;159074.31;;;15.25;84.50
7940;BME280;4015;48.888;9.226;2022-09-09T04:20:02;159079.41;;;15.27;84.59
7940;BME280;4015;48.888;9.226;2022-09-09T04:22:27;159074.31;;;15.25;85.13
7940;BME280;4015;48.888;9.226;2022-09-09T04:24:53;159092.22;;;15.32;85.15
7940;BME280;4015;48.888;9.226;2022-09-09T04:27:18;159084.56;;;15.29;84.61
7940;BME280;4015;48.888;9.226;2022-09-09T04:29:43;159096.06;;;15.33;83.94
7940;BME280;4015;48.888;9.226;2022-09-09T04:32:09;159043.56;;;15.13;84.78
7940;BME280;4015;48.888;9.226;2022-09-09T04:34:34;159048.66;;;15.15;85.07
7940;BME280;4015;48.888;9.226;2022-09-09T04:36:59;159055.09;;;15.17;85.20
7940;BME280;4015;48.888;9.226;2022-09-09T04:39:26;159030.75;;;15.07;85.95
7940;BME280;4015;48.888;9.226;2022-09-09T04:41:51;159070.47;;;15.23;85.20
7940;BME280;4015;48.888;9.226;2022-09-09T04:44:16;159101.22;;;15.35;84.10
7940;BME280;4015;48.888;9.226;2022-09-09T04:46:42;159108.88;;;15.38;83.94
7940;BME280;4015;48.888;9.226;2022-09-09T04:49:07;159096.06;;;15.33;84.55
7940;BME280;4015;48.888;9.226;2022-09-09T04:51:33;159110.16;;;15.39;84.70
7940;BME280;4015;48.888;9.226;2022-09-09T04:53:58;159092.22;;;15.32;84.86
7940;BME280;4015;48.888;9.226;2022-09-09T04:56:24;159078.13;;;15.26;85.21
7940;BME280;4015;48.888;9.226;2022-09-09T04:58:52;159084.56;;;15.29;85.26
7940;BME280;4015;48.888;9.226;2022-09-09T05:01:19;159088.41;;;15.30;84.73
7940;BME280;4015;48.888;9.226;2022-09-09T05:03:46;159099.94;;;15.35;84.20
7940;BME280;4015;48.888;9.226;2022-09-09T05:06:16;159110.16;;;15.39;83.94
7940;BME280;4015;48.888;9.226;2022-09-09T05:08:43;159103.78;;;15.36;84.15
7940;BME280;4015;48.888;9.226;2022-09-09T05:11:21;159094.78;;;15.33;83.95
7940;BME280;4015;48.888;9.226;2022-09-09T05:13:48;159125.53;;;15.45;83.26
7940;BME280;4015;48.888;9.226;2022-09-09T05:16:15;159129.41;;;15.47;83.38
7940;BME280;4015;48.888;9.226;2022-09-09T05:18:41;159166.56;;;15.61;82.66
7940;BME280;4015;48.888;9.226;2022-09-09T05:21:08;159180.72;;;15.67;82.91
7940;BME280;4015;48.888;9.226;2022-09-09T05:23:34;159206.31;;;15.77;82.26
7940;BME280;4015;48.888;9.226;2022-09-09T05:26:00;159228.13;;;15.86;82.30
7940;BME280;4015;48.888;9.226;2022-09-09T05:28:27;159205.03;;;15.77;83.75
7940;BME280;4015;48.888;9.226;2022-09-09T05:31:00;159220.41;;;15.83;82.55
7940;BME280;4015;48.888;9.226;2022-09-09T05:33:28;159171.72;;;15.63;83.02
7940;BME280;4015;48.888;9.226;2022-09-09T05:35:58;159155.03;;;15.57;83.98
7940;BME280;4015;48.888;9.226;2022-09-09T05:38:24;159206.31;;;15.77;83.13
7940;BME280;4015;48.888;9.226;2022-09-09T05:40:50;159239.66;;;15.90;82.13
7940;BME280;4015;48.888;9.226;2022-09-09T05:43:17;159255.06;;;15.97;83.13
7940;BME280;4015;48.888;9.226;2022-09-09T05:45:43;159261.44;;;15.99;82.49
7940;BME280;4015;48.888;9.226;2022-09-09T05:48:08;159284.50;;;16.08;82.45
7940;BME280;4015;48.888;9.226;2022-09-09T05:50:34;159308.88;;;16.18;82.37
7940;BME280;4015;48.888;9.226;2022-09-09T05:52:59;159325.53;;;16.25;81.99
7940;BME280;4015;48.888;9.226;2022-09-09T05:55:24;159357.56;;;16.37;82.32
7940;BME280;4015;48.888;9.226;2022-09-09T05:57:50;159385.78;;;16.49;81.87
7940;BME280;4015;48.888;9.226;2022-09-09T06:00:17;159384.50;;;16.48;81.17
7940;BME280;4015;48.888;9.226;2022-09-09T06:02:43;159452.50;;;16.75;80.16
7940;BME280;4015;48.888;9.226;2022-09-09T06:05:09;159499.94;;;16.94;80.23
7940;BME280;4015;48.888;9.226;2022-09-09T06:07:35;159517.88;;;17.01;78.50
7940;BME280;4015;48.888;9.226;2022-09-09T06:10:01;159537.09;;;17.09;78.11
7940;BME280;4015;48.888;9.226;2022-09-09T06:12:26;159551.22;;;17.14;78.56
7940;BME280;4015;48.888;9.226;2022-09-09T06:14:51;159587.16;;;17.29;78.11
7940;BME280;4015;48.888;9.226;2022-09-09T06:17:17;159593.56;;;17.31;77.34
7940;BME280;4015;48.888;9.226;2022-09-09T06:19:42;159583.28;;;17.27;77.91
7940;BME280;4015;48.888;9.226;2022-09-09T06:22:07;159612.78;;;17.39;78.14
7940;BME280;4015;48.888;9.226;2022-09-09T06:24:36;159620.50;;;17.42;78.55
7940;BME280;4015;48.888;9.226;2022-09-09T06:27:01;159667.97;;;17.61;77.68
7940;BME280;4015;48.888;9.226;2022-09-09T06:29:26;159688.47;;;17.69;75.87
7940;BME280;4015;48.888;9.226;2022-09-09T06:31:53;159696.19;;;17.72;77.42
7940;BME280;4015;48.888;9.226;2022-09-09T06:34:18;159729.59;;;17.85;77.23
7940;BME280;4015;48.888;9.226;2022-09-09T06:36:44;159753.97;;;17.95;77.40
7940;BME280;4015;48.888;9.226;2022-09-09T06:39:10;159800.16;;;18.13;76.68
7940;BME280;4015;48.888;9.226;2022-09-09T06:41:36;159770.63;;;18.01;75.96
7940;BME280;4015;48.888;9.226;2022-09-09T06:44:03;159780.91;;;18.05;77.25
7940;BME280;4015;48.888;9.226;2022-09-09T06:46:30;159804.00;;;18.15;75.98
7940;BME280;4015;48.888;9.226;2022-09-09T06:48:58;159825.84;;;18.23;75.29
7940;BME280;4015;48.888;9.226;2022-09-09T06:51:35;159825.84;;;18.23;75.18
7940;BME280;4015;48.888;9.226;2022-09-09T06:54:02;159866.88;;;18.40;74.76
7940;BME280;4015;48.888;9.226;2022-09-09T06:56:30;159900.25;;;18.53;76.35
7940;BME280;4015;48.888;9.226;2022-09-09T06:58:58;159950.34;;;18.73;75.43
7940;BME280;4015;48.888;9.226;2022-09-09T07:01:26;160005.56;;;18.95;75.80
7940;BME280;4015;48.888;9.226;2022-09-09T07:03:54;160017.13;;;18.99;73.57
7940;BME280;4015;48.888;9.226;2022-09-09T07:06:25;160055.63;;;19.14;73.24
7940;BME280;4015;48.888;9.226;2022-09-09T07:08:52;160101.84;;;19.33;72.80
7940;BME280;4015;48.888;9.226;2022-09-09T07:11:19;160162.22;;;19.57;72.72
7940;BME280;4015;48.888;9.226;2022-09-09T07:13:45;160189.25;;;19.67;72.48
7940;BME280;4015;48.888;9.226;2022-09-09T07:16:15;160211.06;;;19.76;70.99
7940;BME280;4015;48.888;9.226;2022-09-09T07:18:40;160256.03;;;19.94;70.85
7940;BME280;4015;48.888;9.226;2022-09-09T07:21:08;160294.53;;;20.09;70.86
7940;BME280;4015;48.888;9.226;2022-09-09T07:23:34;160347.25;;;20.30;70.78
7940;BME280;4015;48.888;9.226;2022-09-09T07:26:01;160416.66;;;20.58;69.49
7940;BME280;4015;48.888;9.226;2022-09-09T07:28:27;160424.34;;;20.61;67.82
7940;BME280;4015;48.888;9.226;2022-09-09T07:30:58;160352.38;;;20.32;68.55
7940;BME280;4015;48.888;9.226;2022-09-09T07:33:25;160406.38;;;20.54;68.16
7940;BME280;4015;48.888;9.226;2022-09-09T07:35:51;160299.72;;;20.11;68.52
7940;BME280;4015;48.888;9.226;2022-09-09T07:38:18;160298.38;;;20.11;68.82
7940;BME280;4015;48.888;9.226;2022-09-09T07:40:44;160286.88;;;20.06;70.09
7940;BME280;4015;48.888;9.226;2022-09-09T07:43:10;160362.63;;;20.36;69.32
7940;BME280;4015;48.888;9.226;2022-09-09T07:45:36;160462.94;;;20.76;67.30
7940;BME280;4015;48.888;9.226;2022-09-09T07:48:03;160550.28;;;21.11;66.35
7940;BME280;4015;48.888;9.226;2022-09-09T07:50:29;160722.59;;;21.79;64.68
7940;BME280;4015;48.888;9.226;2022-09-09T07:52:54;160758.59;;;21.93;63.60
7940;BME280;4015;48.888;9.226;2022-09-09T07:55:21;160888.56;;;22.45;61.42
7940;BME280;4015;48.888;9.226;2022-09-09T07:57:47;160888.56;;;22.45;61.60
7940;BME280;4015;48.888;9.226;2022-09-09T08:00:13;160801.09;;;22.10;62.60
7940;BME280;4015;48.888;9.226;2022-09-09T08:02:39;160873.13;;;22.39;62.96
7940;BME280;4015;48.888;9.226;2022-09-09T08:05:05;161682.97;;;25.59;55.70
7940;BME280;4015;48.888;9.226;2022-09-09T08:07:31;162349.59;;;28.22;50.29
7940;BME280;4015;48.888;9.226;2022-09-09T08:09:56;162803.91;;;30.02;45.70
7940;BME280;4015;48.888;9.226;2022-09-09T08:12:22;162589.63;;;29.17;46.01
7940;BME280;4015;48.888;9.226;2022-09-09T08:14:48;162061.94;;;27.09;49.18
7940;BME280;4015;48.888;9.226;2022-09-09T08:17:13;161729.41;;;25.77;52.22
7940;BME280;4015;48.888;9.226;2022-09-09T08:19:39;161627.56;;;25.37;54.41
7940;BME280;4015;48.888;9.226;2022-09-09T08:22:04;161421.47;;;24.56;56.33
7940;BME280;4015;48.888;9.226;2022-09-09T08:24:30;161397.03;;;24.46;56.58
7940;BME280;4015;48.888;9.226;2022-09-09T08:26:55;162036.16;;;26.99;52.30
7940;BME280;4015;48.888;9.226;2022-09-09T08:29:22;162597.34;;;29.20;46.02
7940;BME280;4015;48.888;9.226;2022-09-09T08:31:50;162980.84;;;30.72;43.20
7940;BME280;4015;48.888;9.226;2022-09-09T08:34:16;163462.78;;;32.62;40.83
7940;BME280;4015;48.888;9.226;2022-09-09T08:36:45;163447.28;;;32.56;40.23
7940;BME280;4015;48.888;9.226;2022-09-09T08:39:13;162966.59;;;30.66;43.86
7940;BME280;4015;48.888;9.226;2022-09-09T08:50:22;161657.19;;;25.49;52.64
7940;BME280;4015;48.888;9.226;2022-09-09T08:55:56;162082.63;;;27.17;51.94
7940;BME280;4015;48.888;9.226;2022-09-09T08:58:29;162844.00;;;30.18;44.93
7940;BME280;4015;48.888;9.226;2022-09-09T09:01:19;162672.22;;;29.50;45.20
7940;BME280;4015;48.888;9.226;2022-09-09T09:09:21;163855.91;;;34.17;38.55
7940;BME280;4015;48.888;9.226;2022-09-09T09:11:53;162907.25;;;30.43;42.87
7940;BME280;4015;48.888;9.226;2022-09-09T09:14:24;162446.38;;;28.61;46.50
7940;BME280;4015;48.888;9.226;2022-09-09T09:16:57;163169.47;;;31.46;43.09
7940;BME280;4015;48.888;9.226;2022-09-09T09:19:23;162853.00;;;30.21;42.71
7940;BME280;4015;48.888;9.226;2022-09-09T09:21:58;162510.88;;;28.86;43.58
7940;BME280;4015;48.888;9.226;2022-09-09T09:24:34;162218.00;;;27.71;45.38
7940;BME280;4015;48.888;9.226;2022-09-09T09:27:12;161917.53;;;26.52;48.05
7940;BME280;4015;48.888;9.226;2022-09-09T09:29:39;161751.28;;;25.86;49.25
7940;BME280;4015;48.888;9.226;2022-09-09T09:32:05;161603.13;;;25.27;49.05
7940;BME280;4015;48.888;9.226;2022-09-09T09:34:35;161586.38;;;25.21;49.69
7940;BME280;4015;48.888;9.226;2022-09-09T09:37:01;161627.56;;;25.37;49.19
7940;BME280;4015;48.888;9.226;2022-09-09T09:39:32;161601.84;;;25.27;50.46
7940;BME280;4015;48.888;9.226;2022-09-09T09:42:10;161542.53;;;25.03;50.70
7940;BME280;4015;48.888;9.226;2022-09-09T09:44:39;161534.78;;;25.00;51.72
7940;BME280;4015;48.888;9.226;2022-09-09T09:47:11;161547.72;;;25.06;51.27
7940;BME280;4015;48.888;9.226;2022-09-09T09:49:37;162067.16;;;27.11;49.18
7940;BME280;4015;48.888;9.226;2022-09-09T09:52:04;162779.41;;;29.92;42.69
7940;BME280;4015;48.888;9.226;2022-09-09T09:54:32;163562.38;;;33.01;39.27
7940;BME280;4015;48.888;9.226;2022-09-09T09:57:10;164238.88;;;35.67;36.47
7940;BME280;4015;48.888;9.226;2022-09-09T09:59:36;164640.19;;;37.25;34.34
7940;BME280;4015;48.888;9.226;2022-09-09T10:02:37;164991.19;;;38.64;32.46
7940;BME280;4015;48.888;9.226;2022-09-09T10:05:06;164872.03;;;38.17;30.12
7940;BME280;4015;48.888;9.226;2022-09-09T10:07:34;164896.66;;;38.26;31.10
7940;BME280;4015;48.888;9.226;2022-09-09T10:09:59;165083.19;;;39.00;31.10
7940;BME280;4015;48.888;9.226;2022-09-09T10:12:42;165181.69;;;39.38;30.75
7940;BME280;4015;48.888;9.226;2022-09-09T10:26:08;165577.06;;;40.94;27.79
7940;BME280;4015;48.888;9.226;2022-09-09T10:28:51;165356.66;;;40.07;27.79
7940;BME280;4015;48.888;9.226;2022-09-09T10:31:25;165562.75;;;40.88;28.18
7940;BME280;4015;48.888;9.226;2022-09-09T10:36:32;165953.09;;;42.42;27.13
7940;BME280;4015;48.888;9.226;2022-09-09T10:42:05;166119.16;;;43.07;26.05
7940;BME280;4015;48.888;9.226;2022-09-09T10:44:59;165730.00;;;41.54;26.98
7940;BME280;4015;48.888;9.226;2022-09-09T10:47:43;164866.81;;;38.15;29.30
7940;BME280;4015;48.888;9.226;2022-09-09T10:50:35;164733.44;;;37.62;30.89
7940;BME280;4015;48.888;9.226;2022-09-09T10:53:14;164097.81;;;35.12;32.78
7940;BME280;4015;48.888;9.226;2022-09-09T10:55:53;163725.28;;;33.65;35.23
7940;BME280;4015;48.888;9.226;2022-09-09T10:58:31;163190.09;;;31.54;37.13
7940;BME280;4015;48.888;9.226;2022-09-09T11:01:09;162534.13;;;28.95;41.24
7940;BME280;4015;48.888;9.226;2022-09-09T11:03:41;162049.06;;;27.04;44.92
7940;BME280;4015;48.888;9.226;2022-09-09T11:06:15;161836.31;;;26.20;47.41
7940;BME280;4015;48.888;9.226;2022-09-09T11:08:42;161445.94;;;24.65;50.54
7940;BME280;4015;48.888;9.226;2022-09-09T11:11:21;161321.00;;;24.16;53.25
7940;BME280;4015;48.888;9.226;2022-09-09T11:19:04;160873.13;;;22.39;57.81
7940;BME280;4015;48.888;9.226;2022-09-09T11:21:40;160831.97;;;22.22;58.44
7940;BME280;4015;48.888;9.226;2022-09-09T11:24:35;160738.03;;;21.85;62.70
7940;BME280;4015;48.888;9.226;2022-09-09T11:27:09;160527.19;;;21.01;69.69
7940;BME280;4015;48.888;9.226;2022-09-09T11:32:47;160110.88;;;19.36;75.14
7940;BME280;4015;48.888;9.226;2022-09-09T11:38:27;160127.56;;;19.43;79.28
7940;BME280;4015;48.888;9.226;2022-09-09T11:40:58;160140.34;;;19.48;77.70
7940;BME280;4015;48.888;9.226;2022-09-09T11:43:33;160171.22;;;19.60;74.81
7940;BME280;4015;48.888;9.226;2022-09-09T11:46:04;160203.34;;;19.73;73.82
7940;BME280;4015;48.888;9.226;2022-09-09T11:48:41;160666.06;;;21.57;69.05
7940;BME280;4015;48.888;9.226;2022-09-09T11:51:27;160839.69;;;22.25;67.79
7940;BME280;4015;48.888;9.226;2022-09-09T11:53:54;161009.50;;;22.93;68.31
7940;BME280;4015;48.888;9.226;2022-09-09T11:56:34;161118.88;;;23.36;61.62
7940;BME280;4015;48.888;9.226;2022-09-09T11:59:02;161075.13;;;23.19;64.11
7940;BME280;4015;48.888;9.226;2022-09-09T12:01:40;161185.84;;;23.62;62.66
7940;BME280;4015;48.888;9.226;2022-09-09T12:09:38;161869.81;;;26.33;57.25
7940;BME280;4015;48.888;9.226;2022-09-09T12:17:22;162036.16;;;26.99;54.79
7940;BME280;4015;48.888;9.226;2022-09-09T12:20:11;162051.63;;;27.05;52.60
7940;BME280;4015;48.888;9.226;2022-09-09T12:22:45;162323.78;;;28.12;53.63
7940;BME280;4015;48.888;9.226;2022-09-09T12:28:17;164483.50;;;36.64;35.69
7940;BME280;4015;48.888;9.226;2022-09-09T12:33:18;165068.94;;;38.94;32.44
7940;BME280;4015;48.888;9.226;2022-09-09T12:35:47;165151.88;;;39.27;31.64
7940;BME280;4015;48.888;9.226;2022-09-09T12:38:22;165273.72;;;39.75;30.53
7940;BME280;4015;48.888;9.226;2022-09-09T12:40:56;164993.78;;;38.65;32.51
7940;BME280;4015;48.888;9.226;2022-09-09T12:43:24;164754.13;;;37.70;32.67
7940;BME280;4015;48.888;9.226;2022-09-09T12:45:51;165110.41;;;39.10;30.57
7940;BME280;4015;48.888;9.226;2022-09-09T12:48:27;165343.66;;;40.02;30.61
7940;BME280;4015;48.888;9.226;2022-09-09T12:50:55;165663.88;;;41.28;29.78
7940;BME280;4015;48.888;9.226;2022-09-09T12:53:35;165277.59;;;39.76;31.05
7940;BME280;4015;48.888;9.226;2022-09-09T12:56:04;164887.56;;;38.23;31.97
7940;BME280;4015;48.888;9.226;2022-09-09T12:58:32;164418.75;;;36.38;33.67
7940;BME280;4015;48.888;9.226;2022-09-09T13:00:59;163668.38;;;33.43;36.15
7940;BME280;4015;48.888;9.226;2022-09-09T13:03:26;163257.38;;;31.81;38.70
7940;BME280;4015;48.888;9.226;2022-09-09T13:05:53;163187.53;;;31.53;40.07
7940;BME280;4015;48.888;9.226;2022-09-09T13:08:18;162899.47;;;30.40;40.31
7940;BME280;4015;48.888;9.226;2022-09-09T13:10:55;162603.84;;;29.23;43.61
7940;BME280;4015;48.888;9.226;2022-09-09T13:13:35;162361.16;;;28.27;46.08
7940;BME280;4015;48.888;9.226;2022-09-09T13:16:03;162184.44;;;27.57;46.04
7940;BME280;4015;48.888;9.226;2022-09-09T13:18:32;162037.44;;;26.99;47.37
7940;BME280;4015;48.888;9.226;2022-09-09T13:20:59;161900.78;;;26.45;48.69
7940;BME280;4015;48.888;9.226;2022-09-09T13:23:30;161939.47;;;26.60;50.44
7940;BME280;4015;48.888;9.226;2022-09-09T13:25:59;161971.72;;;26.73;49.85
7940;BME280;4015;48.888;9.226;2022-09-09T13:28:27;162037.44;;;26.99;48.37
7940;BME280;4015;48.888;9.226;2022-09-09T13:31:33;162069.72;;;27.12;48.92
7940;BME280;4015;48.888;9.226;2022-09-09T13:33:58;162086.47;;;27.19;47.35
7940;BME280;4015;48.888;9.226;2022-09-09T13:36:30;162184.44;;;27.57;46.46
7940;BME280;4015;48.888;9.226;2022-09-09T13:38:57;162811.66;;;30.05;45.01
7940;BME280;4015;48.888;9.226;2022-09-09T13:41:35;163714.94;;;33.61;36.78
7940;BME280;4015;48.888;9.226;2022-09-09T13:44:05;164321.72;;;36.00;33.56
7940;BME280;4015;48.888;9.226;2022-09-09T13:51:50;164860.38;;;38.12;31.48
7940;BME280;4015;48.888;9.226;2022-09-09T13:54:19;164373.47;;;36.20;32.63
7940;BME280;4015;48.888;9.226;2022-09-09T13:56:46;164062.91;;;34.98;33.32
7940;BME280;4015;48.888;9.226;2022-09-09T13:59:16;163455.06;;;32.59;36.43
7940;BME280;4015;48.888;9.226;2022-09-09T14:01:42;162987.34;;;30.74;39.09
7940;BME280;4015;48.888;9.226;2022-09-09T14:04:08;162696.75;;;29.60;43.20
7940;BME280;4015;48.888;9.226;2022-09-09T14:06:36;162510.88;;;28.86;41.99
7940;BME280;4015;48.888;9.226;2022-09-09T14:09:03;162636.09;;;29.36;42.31
7940;BME280;4015;48.888;9.226;2022-09-09T14:11:29;163557.19;;;32.99;36.72
7940;BME280;4015;48.888;9.226;2022-09-09T14:13:54;164110.75;;;35.17;34.36
7940;BME280;4015;48.888;9.226;2022-09-09T14:16:21;164509.41;;;36.74;32.00
7940;BME280;4015;48.888;9.226;2022-09-09T14:18:47;163923.19;;;34.43;33.21
7940;BME280;4015;48.888;9.226;2022-09-09T14:21:13;163464.06;;;32.62;36.60
7940;BME280;4015;48.888;9.226;2022-09-09T14:23:39;162931.75;;;30.52;38.72
7940;BME280;4015;48.888;9.226;2022-09-09T14:26:05;163219.81;;;31.66;37.56
7940;BME280;4015;48.888;9.226;2022-09-09T14:28:31;163883.06;;;34.27;34.92
7940;BME280;4015;48.888;9.226;2022-09-09T14:31:02;164264.78;;;35.78;31.71
7940;BME280;4015;48.888;9.226;2022-09-09T14:33:29;164348.91;;;36.11;30.93
7940;BME280;4015;48.888;9.226;2022-09-09T14:36:03;164256.97;;;35.75;31.85
7940;BME280;4015;48.888;9.226;2022-09-09T14:38:30;163917.97;;;34.41;33.07
7940;BME280;4015;48.888;9.226;2022-09-09T14:40:56;163312.88;;;32.03;36.11
7940;BME280;4015;48.888;9.226;2022-09-09T14:43:21;162851.72;;;30.21;39.92
7940;BME280;4015;48.888;9.226;2022-09-09T14:45:47;162420.56;;;28.51;41.14
7940;BME280;4015;48.888;9.226;2022-09-09T14:48:14;162118.69;;;27.31;42.86
7940;BME280;4015;48.888;9.226;2022-09-09T14:50:40;161927.88;;;26.56;44.85
7940;BME280;4015;48.888;9.226;2022-09-09T14:53:07;161930.44;;;26.57;45.23
7940;BME280;4015;48.888;9.226;2022-09-09T14:55:34;161912.41;;;26.50;45.52
7940;BME280;4015;48.888;9.226;2022-09-09T14:57:59;161882.72;;;26.38;44.67
7940;BME280;4015;48.888;9.226;2022-09-09T15:00:25;161765.47;;;25.92;45.24
7940;BME280;4015;48.888;9.226;2022-09-09T15:02:52;161720.38;;;25.74;45.70
7940;BME280;4015;48.888;9.226;2022-09-09T15:05:18;161693.25;;;25.63;46.33